sensor_id;sensor_type;location;lat;lon;timestamp;P1;durP1;ratioP1;P2;durP2;ratioP2
68976;SDS011;56029;52.568;13.588;2024-02-23T00:01:26;1.83;;;1.10;;
68976;SDS011;56029;52.568;13.588;2024-02-23T00:03:51;2.40;;;1.30;;
68976;SDS011;56029;52.568;13.588;2024-02-23T00:06:17;1.75;;;1.27;;
68976;SDS011;56029;52.568;13.588;2024-02-23T00:08:43;1.90;;;1.20;;
68976;SDS011;56029;52.568;13.588;2024-02-23T00:11:08;2.08;;;1.30;;
68976;SDS011;56029;52.568;13.588;2024-02-23T00:13:34;1.73;;;1.30;;
68976;SDS011;56029;52.568;13.588;2024-02-23T00:16:00;1.98;;;1.30;;
68976;SDS011;56029;52.568;13.588;2024-02-23T00:18:26;1.87;;;1.40;;
68976;SDS011;56029;52.568;13.588;2024-02-23T00:20:51;1.70;;;1.10;;
68976;SDS011;56029;52.568;13.588;2024-02-23T00:23:17;2.40;;;1.40;;
68976;SDS011;56029;52.568;13.588;2024-02-23T00:25:42;2.23;;;1.43;;
68976;SDS011;56029;52.568;13.588;2024-02-23T00:28:08;2.33;;;1.30;;
68976;SDS011;56029;52.568;13.588;2024-02-23T00:30:34;1.90;;;1.20;;
68976;SDS011;56029;52.568;13.588;2024-02-23T00:32:59;2.13;;;1.20;;
68976;SDS011;56029;52.568;13.588;2024-02-23T00:35:25;2.50;;;1.30;;
68976;SDS011;56029;52.568;13.588;2024-02-23T00:37:50;2.53;;;1.40;;
68976;SDS011;56029;52.568;13.588;2024-02-23T00:40:16;2.22;;;1.27;;
68976;SDS011;56029;52.568;13.588;2024-02-23T00:42:41;2.33;;;1.30;;
68976;SDS011;56029;52.568;13.588;2024-02-23T00:45:07;2.40;;;1.40;;
68976;SDS011;56029;52.568;13.588;2024-02-23T00:47:33;2.03;;;1.30;;
68976;SDS011;56029;52.568;13.588;2024-02-23T00:49:58;1.77;;;1.30;;
68976;SDS011;56029;52.568;13.588;2024-02-23T00:52:24;2.47;;;1.38;;
68976;SDS011;56029;52.568;13.588;2024-02-23T00:54:49;2.57;;;1.40;;
68976;SDS011;56029;52.568;13.588;2024-02-23T00:57:15;2.67;;;1.50;;
68976;SDS011;56029;52.568;13.588;2024-02-23T00:59:40;2.30;;;1.40;;
68976;SDS011;56029;52.568;13.588;2024-02-23T01:02:06;2.37;;;1.23;;
68976;SDS011;56029;52.568;13.588;2024-02-23T01:04:31;2.30;;;1.33;;
68976;SDS011;56029;52.568;13.588;2024-02-23T01:06:57;2.05;;;1.40;;
68976;SDS011;56029;52.568;13.588;2024-02-23T01:09:23;2.58;;;1.40;;
68976;SDS011;56029;52.568;13.588;2024-02-23T01:11:49;3.27;;;1.50;;
68976;SDS011;56029;52.568;13.588;2024-02-23T01:14:14;1.93;;;1.30;;
68976;SDS011;56029;52.568;13.588;2024-02-23T01:16:40;2.08;;;1.20;;
68976;SDS011;56029;52.568;13.588;2024-02-23T01:19:05;2.03;;;1.33;;
68976;SDS011;56029;52.568;13.588;2024-02-23T01:21:31;2.42;;;1.60;;
68976;SDS011;56029;52.568;13.588;2024-02-23T01:23:56;2.03;;;1.30;;
68976;SDS011;56029;52.568;13.588;2024-02-23T01:26:22;1.87;;;1.33;;
68976;SDS011;56029;52.568;13.588;2024-02-23T01:28:48;2.67;;;1.40;;
68976;SDS011;56029;52.568;13.588;2024-02-23T01:31:14;2.25;;;1.42;;
68976;SDS011;56029;52.568;13.588;2024-02-23T01:33:39;3.23;;;1.50;;
68976;SDS011;56029;52.568;13.588;2024-02-23T01:36:05;3.43;;;1.60;;
68976;SDS011;56029;52.568;13.588;2024-02-23T01:38:31;2.33;;;1.20;;
68976;SDS011;56029;52.568;13.588;2024-02-23T01:40:58;1.70;;;1.30;;
68976;SDS011;56029;52.568;13.588;2024-02-23T01:43:24;2.03;;;1.13;;
68976;SDS011;56029;52.568;13.588;2024-02-23T01:45:50;2.20;;;1.23;;
68976;SDS011;56029;52.568;13.588;2024-02-23T01:48:15;2.42;;;1.45;;
68976;SDS011;56029;52.568;13.588;2024-02-23T01:50:41;2.00;;;1.20;;
68976;SDS011;56029;52.568;13.588;2024-02-23T01:53:08;2.50;;;1.40;;
68976;SDS011;56029;52.568;13.588;2024-02-23T01:55:35;2.25;;;1.20;;
68976;SDS011;56029;52.568;13.588;2024-02-23T01:58:01;2.90;;;1.30;;
68976;SDS011;56029;52.568;13.588;2024-02-23T02:00:28;1.90;;;1.10;;
68976;SDS011;56029;52.568;13.588;2024-02-23T02:02:54;2.38;;;1.20;;
68976;SDS011;56029;52.568;13.588;2024-02-23T02:05:20;2.00;;;1.30;;
68976;SDS011;56029;52.568;13.588;2024-02-23T02:07:46;2.15;;;1.10;;
68976;SDS011;56029;52.568;13.588;2024-02-23T02:10:14;1.40;;;1.13;;
68976;SDS011;56029;52.568;13.588;2024-02-23T02:12:40;2.00;;;1.10;;
68976;SDS011;56029;52.568;13.588;2024-02-23T02:15:05;1.50;;;1.00;;
68976;SDS011;56029;52.568;13.588;2024-02-23T02:17:31;1.83;;;1.10;;
68976;SDS011;56029;52.568;13.588;2024-02-23T02:19:58;1.70;;;1.10;;
68976;SDS011;56029;52.568;13.588;2024-02-23T02:22:24;1.63;;;1.02;;
68976;SDS011;56029;52.568;13.588;2024-02-23T02:24:50;1.35;;;0.90;;
68976;SDS011;56029;52.568;13.588;2024-02-23T02:27:15;1.87;;;1.00;;
68976;SDS011;56029;52.568;13.588;2024-02-23T02:29:41;1.10;;;0.90;;
68976;SDS011;56029;52.568;13.588;2024-02-23T02:32:06;1.50;;;1.00;;
68976;SDS011;56029;52.568;13.588;2024-02-23T02:34:32;1.83;;;1.00;;
68976;SDS011;56029;52.568;13.588;2024-02-23T02:36:57;1.80;;;0.80;;
68976;SDS011;56029;52.568;13.588;2024-02-23T02:39:23;2.05;;;0.85;;
68976;SDS011;56029;52.568;13.588;2024-02-23T02:41:48;1.53;;;1.00;;
68976;SDS011;56029;52.568;13.588;2024-02-23T02:44:14;1.55;;;0.80;;
68976;SDS011;56029;52.568;13.588;2024-02-23T02:46:40;0.87;;;0.77;;
68976;SDS011;56029;52.568;13.588;2024-02-23T02:49:06;0.75;;;0.70;;
68976;SDS011;56029;52.568;13.588;2024-02-23T02:51:31;1.80;;;0.80;;
68976;SDS011;56029;52.568;13.588;2024-02-23T02:53:57;3.00;;;0.70;;
68976;SDS011;56029;52.568;13.588;2024-02-23T02:56:22;1.90;;;0.50;;
68976;SDS011;56029;52.568;13.588;2024-02-23T02:58:48;1.43;;;0.50;;
68976;SDS011;56029;52.568;13.588;2024-02-23T03:01:13;1.57;;;0.90;;
68976;SDS011;56029;52.568;13.588;2024-02-23T03:03:39;0.73;;;0.60;;
68976;SDS011;56029;52.568;13.588;2024-02-23T03:06:04;0.60;;;0.50;;
68976;SDS011;56029;52.568;13.588;2024-02-23T03:08:30;1.38;;;0.70;;
68976;SDS011;56029;52.568;13.588;2024-02-23T03:10:56;1.80;;;1.00;;
68976;SDS011;56029;52.568;13.588;2024-02-23T03:13:22;2.13;;;0.70;;
68976;SDS011;56029;52.568;13.588;2024-02-23T03:15:47;0.70;;;0.60;;
68976;SDS011;56029;52.568;13.588;2024-02-23T03:18:13;0.77;;;0.60;;
68976;SDS011;56029;52.568;13.588;2024-02-23T03:20:38;1.70;;;0.80;;
68976;SDS011;56029;52.568;13.588;2024-02-23T03:23:04;0.67;;;0.60;;
68976;SDS011;56029;52.568;13.588;2024-02-23T03:25:29;1.08;;;0.60;;
68976;SDS011;56029;52.568;13.588;2024-02-23T03:27:55;0.77;;;0.60;;
68976;SDS011;56029;52.568;13.588;2024-02-23T03:30:20;0.60;;;0.60;;
68976;SDS011;56029;52.568;13.588;2024-02-23T03:32:46;1.42;;;0.60;;
68976;SDS011;56029;52.568;13.588;2024-02-23T03:35:11;0.60;;;0.60;;
68976;SDS011;56029;52.568;13.588;2024-02-23T03:37:37;1.07;;;0.60;;
68976;SDS011;56029;52.568;13.588;2024-02-23T03:40:03;1.05;;;0.70;;
68976;SDS011;56029;52.568;13.588;2024-02-23T03:42:29;1.77;;;0.77;;
68976;SDS011;56029;52.568;13.588;2024-02-23T03:44:55;3.03;;;0.70;;
68976;SDS011;56029;52.568;13.588;2024-02-23T03:47:21;1.90;;;0.70;;
68976;SDS011;56029;52.568;13.588;2024-02-23T03:49:46;1.17;;;0.80;;
68976;SDS011;56029;52.568;13.588;2024-02-23T03:52:12;1.10;;;0.90;;
68976;SDS011;56029;52.568;13.588;2024-02-23T03:54:37;2.17;;;0.80;;
68976;SDS011;56029;52.568;13.588;2024-02-23T03:57:03;1.33;;;0.70;;
68976;SDS011;56029;52.568;13.588;2024-02-23T03:59:28;2.03;;;0.80;;
68976;SDS011;56029;52.568;13.588;2024-02-23T04:01:54;2.10;;;0.70;;
68976;SDS011;56029;52.568;13.588;2024-02-23T04:04:19;1.38;;;0.70;;
68976;SDS011;56029;52.568;13.588;2024-02-23T04:06:45;0.93;;;0.70;;
68976;SDS011;56029;52.568;13.588;2024-02-23T04:09:10;2.13;;;0.83;;
68976;SDS011;56029;52.568;13.588;2024-02-23T04:11:36;2.50;;;1.02;;
68976;SDS011;56029;52.568;13.588;2024-02-23T04:14:02;2.80;;;0.90;;
68976;SDS011;56029;52.568;13.588;2024-02-23T04:16:27;1.45;;;0.80;;
68976;SDS011;56029;52.568;13.588;2024-02-23T04:18:53;2.17;;;0.93;;
68976;SDS011;56029;52.568;13.588;2024-02-23T04:21:19;2.00;;;0.80;;
68976;SDS011;56029;52.568;13.588;2024-02-23T04:23:45;2.53;;;0.90;;
68976;SDS011;56029;52.568;13.588;2024-02-23T04:26:11;1.27;;;0.63;;
68976;SDS011;56029;52.568;13.588;2024-02-23T04:28:40;0.73;;;0.60;;
68976;SDS011;56029;52.568;13.588;2024-02-23T04:31:07;2.33;;;0.80;;
68976;SDS011;56029;52.568;13.588;2024-02-23T04:33:34;2.70;;;1.00;;
68976;SDS011;56029;52.568;13.588;2024-02-23T04:36:00;1.70;;;0.80;;
68976;SDS011;56029;52.568;13.588;2024-02-23T04:38:25;1.60;;;0.80;;
68976;SDS011;56029;52.568;13.588;2024-02-23T04:40:51;2.40;;;0.70;;
68976;SDS011;56029;52.568;13.588;2024-02-23T04:43:16;3.93;;;0.80;;
68976;SDS011;56029;52.568;13.588;2024-02-23T04:45:42;2.00;;;0.70;;
68976;SDS011;56029;52.568;13.588;2024-02-23T04:48:07;0.83;;;0.63;;
68976;SDS011;56029;52.568;13.588;2024-02-23T04:50:33;1.30;;;0.65;;
68976;SDS011;56029;52.568;13.588;2024-02-23T04:52:58;1.87;;;0.80;;
68976;SDS011;56029;52.568;13.588;2024-02-23T04:55:24;2.87;;;0.80;;
68976;SDS011;56029;52.568;13.588;2024-02-23T04:57:49;2.30;;;0.80;;
68976;SDS011;56029;52.568;13.588;2024-02-23T05:00:15;1.20;;;0.67;;
68976;SDS011;56029;52.568;13.588;2024-02-23T05:02:41;0.80;;;0.68;;
68976;SDS011;56029;52.568;13.588;2024-02-23T05:05:06;1.07;;;0.70;;
68976;SDS011;56029;52.568;13.588;2024-02-23T05:07:32;1.20;;;0.70;;
68976;SDS011;56029;52.568;13.588;2024-02-23T05:09:58;1.17;;;0.60;;
68976;SDS011;56029;52.568;13.588;2024-02-23T05:12:23;0.90;;;0.70;;
68976;SDS011;56029;52.568;13.588;2024-02-23T05:14:49;1.40;;;0.75;;
68976;SDS011;56029;52.568;13.588;2024-02-23T05:17:14;2.73;;;1.13;;
68976;SDS011;56029;52.568;13.588;2024-02-23T05:19:40;0.80;;;0.80;;
68976;SDS011;56029;52.568;13.588;2024-02-23T05:22:05;1.48;;;1.15;;
68976;SDS011;56029;52.568;13.588;2024-02-23T05:24:31;1.07;;;0.53;;
68976;SDS011;56029;52.568;13.588;2024-02-23T05:26:57;0.98;;;0.60;;
68976;SDS011;56029;52.568;13.588;2024-02-23T05:29:23;1.37;;;0.60;;
68976;SDS011;56029;52.568;13.588;2024-02-23T05:31:52;1.80;;;0.60;;
68976;SDS011;56029;52.568;13.588;2024-02-23T05:34:18;1.45;;;0.70;;
68976;SDS011;56029;52.568;13.588;2024-02-23T05:36:43;1.23;;;0.70;;
68976;SDS011;56029;52.568;13.588;2024-02-23T05:39:09;1.17;;;0.60;;
68976;SDS011;56029;52.568;13.588;2024-02-23T05:41:35;1.63;;;0.60;;
68976;SDS011;56029;52.568;13.588;2024-02-23T05:44:03;1.40;;;0.70;;
68976;SDS011;56029;52.568;13.588;2024-02-23T05:46:29;1.13;;;0.60;;
68976;SDS011;56029;52.568;13.588;2024-02-23T05:48:54;1.50;;;0.90;;
68976;SDS011;56029;52.568;13.588;2024-02-23T05:51:20;2.07;;;0.70;;
68976;SDS011;56029;52.568;13.588;2024-02-23T05:53:45;1.25;;;0.52;;
68976;SDS011;56029;52.568;13.588;2024-02-23T05:56:11;1.23;;;0.70;;
68976;SDS011;56029;52.568;13.588;2024-02-23T05:58:36;0.87;;;0.80;;
68976;SDS011;56029;52.568;13.588;2024-02-23T06:01:02;1.30;;;0.60;;
68976;SDS011;56029;52.568;13.588;2024-02-23T06:03:27;1.10;;;0.70;;
68976;SDS011;56029;52.568;13.588;2024-02-23T06:05:53;1.30;;;0.70;;
68976;SDS011;56029;52.568;13.588;2024-02-23T06:08:18;0.60;;;0.60;;
68976;SDS011;56029;52.568;13.588;2024-02-23T06:10:44;1.73;;;0.70;;
68976;SDS011;56029;52.568;13.588;2024-02-23T06:13:09;0.50;;;0.50;;
68976;SDS011;56029;52.568;13.588;2024-02-23T06:15:35;0.80;;;0.70;;
68976;SDS011;56029;52.568;13.588;2024-02-23T06:18:00;0.80;;;0.63;;
68976;SDS011;56029;52.568;13.588;2024-02-23T06:20:26;1.10;;;0.70;;
68976;SDS011;56029;52.568;13.588;2024-02-23T06:22:51;0.60;;;0.60;;
68976;SDS011;56029;52.568;13.588;2024-02-23T06:25:17;1.13;;;0.70;;
68976;SDS011;56029;52.568;13.588;2024-02-23T06:27:43;2.07;;;0.80;;
68976;SDS011;56029;52.568;13.588;2024-02-23T06:30:08;1.13;;;0.82;;
68976;SDS011;56029;52.568;13.588;2024-02-23T06:32:34;1.17;;;0.70;;
68976;SDS011;56029;52.568;13.588;2024-02-23T06:34:59;0.98;;;0.65;;
68976;SDS011;56029;52.568;13.588;2024-02-23T06:37:25;1.10;;;0.77;;
68976;SDS011;56029;52.568;13.588;2024-02-23T06:39:50;1.00;;;0.90;;
68976;SDS011;56029;52.568;13.588;2024-02-23T06:42:16;1.48;;;0.68;;
68976;SDS011;56029;52.568;13.588;2024-02-23T06:44:41;1.33;;;0.80;;
68976;SDS011;56029;52.568;13.588;2024-02-23T06:47:07;1.83;;;0.70;;
68976;SDS011;56029;52.568;13.588;2024-02-23T06:49:32;1.67;;;0.70;;
68976;SDS011;56029;52.568;13.588;2024-02-23T06:51:58;1.30;;;0.80;;
68976;SDS011;56029;52.568;13.588;2024-02-23T06:54:23;1.63;;;0.70;;
68976;SDS011;56029;52.568;13.588;2024-02-23T06:56:49;1.80;;;0.93;;
68976;SDS011;56029;52.568;13.588;2024-02-23T06:59:15;2.40;;;0.97;;
68976;SDS011;56029;52.568;13.588;2024-02-23T07:01:47;0.70;;;0.70;;
68976;SDS011;56029;52.568;13.588;2024-02-23T07:04:16;2.78;;;0.80;;
68976;SDS011;56029;52.568;13.588;2024-02-23T07:06:41;1.08;;;0.85;;
68976;SDS011;56029;52.568;13.588;2024-02-23T07:09:07;1.00;;;0.80;;
68976;SDS011;56029;52.568;13.588;2024-02-23T07:11:32;1.60;;;0.80;;
68976;SDS011;56029;52.568;13.588;2024-02-23T07:13:58;0.97;;;0.77;;
68976;SDS011;56029;52.568;13.588;2024-02-23T07:16:23;1.73;;;1.00;;
68976;SDS011;56029;52.568;13.588;2024-02-23T07:18:49;1.37;;;0.70;;
68976;SDS011;56029;52.568;13.588;2024-02-23T07:21:17;0.82;;;0.70;;
68976;SDS011;56029;52.568;13.588;2024-02-23T07:23:43;1.40;;;0.88;;
68976;SDS011;56029;52.568;13.588;2024-02-23T07:26:08;1.77;;;0.90;;
68976;SDS011;56029;52.568;13.588;2024-02-23T07:28:34;1.90;;;0.90;;
68976;SDS011;56029;52.568;13.588;2024-02-23T07:30:59;1.25;;;0.93;;
68976;SDS011;56029;52.568;13.588;2024-02-23T07:33:25;2.50;;;1.10;;
68976;SDS011;56029;52.568;13.588;2024-02-23T07:35:50;2.60;;;0.90;;
68976;SDS011;56029;52.568;13.588;2024-02-23T07:38:16;1.30;;;0.90;;
68976;SDS011;56029;52.568;13.588;2024-02-23T07:40:41;1.33;;;0.85;;
68976;SDS011;56029;52.568;13.588;2024-02-23T07:43:07;1.97;;;1.00;;
68976;SDS011;56029;52.568;13.588;2024-02-23T07:45:32;1.60;;;0.90;;
68976;SDS011;56029;52.568;13.588;2024-02-23T07:47:58;1.17;;;0.90;;
68976;SDS011;56029;52.568;13.588;2024-02-23T07:50:23;1.00;;;0.90;;
68976;SDS011;56029;52.568;13.588;2024-02-23T07:52:49;1.20;;;0.83;;
68976;SDS011;56029;52.568;13.588;2024-02-23T07:55:14;1.02;;;0.80;;
68976;SDS011;56029;52.568;13.588;2024-02-23T07:57:40;2.23;;;0.90;;
68976;SDS011;56029;52.568;13.588;2024-02-23T08:00:06;1.10;;;0.90;;
68976;SDS011;56029;52.568;13.588;2024-02-23T08:02:32;1.70;;;1.10;;
68976;SDS011;56029;52.568;13.588;2024-02-23T08:04:57;1.63;;;0.88;;
68976;SDS011;56029;52.568;13.588;2024-02-23T08:07:23;1.00;;;0.70;;
68976;SDS011;56029;52.568;13.588;2024-02-23T08:09:48;1.37;;;0.93;;
68976;SDS011;56029;52.568;13.588;2024-02-23T08:12:14;1.20;;;0.87;;
68976;SDS011;56029;52.568;13.588;2024-02-23T08:14:39;1.63;;;1.00;;
68976;SDS011;56029;52.568;13.588;2024-02-23T08:17:05;1.10;;;0.90;;
68976;SDS011;56029;52.568;13.588;2024-02-23T08:19:30;1.63;;;0.80;;
68976;SDS011;56029;52.568;13.588;2024-02-23T08:21:56;1.05;;;0.90;;
68976;SDS011;56029;52.568;13.588;2024-02-23T08:24:21;1.97;;;1.00;;
68976;SDS011;56029;52.568;13.588;2024-02-23T08:26:47;1.20;;;1.00;;
68976;SDS011;56029;52.568;13.588;2024-02-23T08:29:12;1.45;;;1.00;;
68976;SDS011;56029;52.568;13.588;2024-02-23T08:31:38;2.07;;;1.00;;
68976;SDS011;56029;52.568;13.588;2024-02-23T08:34:03;1.60;;;1.10;;
68976;SDS011;56029;52.568;13.588;2024-02-23T08:36:29;1.57;;;1.10;;
68976;SDS011;56029;52.568;13.588;2024-02-23T08:38:54;1.80;;;1.20;;
68976;SDS011;56029;52.568;13.588;2024-02-23T08:41:20;1.70;;;1.00;;
68976;SDS011;56029;52.568;13.588;2024-02-23T08:43:46;1.45;;;1.10;;
68976;SDS011;56029;52.568;13.588;2024-02-23T08:46:11;2.00;;;1.07;;
68976;SDS011;56029;52.568;13.588;2024-02-23T08:48:36;1.73;;;1.10;;
68976;SDS011;56029;52.568;13.588;2024-02-23T08:51:02;1.93;;;0.90;;
68976;SDS011;56029;52.568;13.588;2024-02-23T08:53:28;3.80;;;1.10;;
68976;SDS011;56029;52.568;13.588;2024-02-23T08:55:53;1.50;;;1.10;;
68976;SDS011;56029;52.568;13.588;2024-02-23T08:58:19;2.45;;;0.80;;
68976;SDS011;56029;52.568;13.588;2024-02-23T09:00:44;0.90;;;0.70;;
68976;SDS011;56029;52.568;13.588;2024-02-23T09:03:10;1.20;;;0.70;;
68976;SDS011;56029;52.568;13.588;2024-02-23T09:05:35;2.20;;;0.90;;
68976;SDS011;56029;52.568;13.588;2024-02-23T09:08:01;0.83;;;0.70;;
68976;SDS011;56029;52.568;13.588;2024-02-23T09:10:26;1.57;;;0.80;;
68976;SDS011;56029;52.568;13.588;2024-02-23T09:12:52;2.28;;;0.88;;
68976;SDS011;56029;52.568;13.588;2024-02-23T09:15:17;1.10;;;0.80;;
68976;SDS011;56029;52.568;13.588;2024-02-23T09:17:43;3.10;;;1.10;;
68976;SDS011;56029;52.568;13.588;2024-02-23T09:20:08;1.30;;;0.90;;
68976;SDS011;56029;52.568;13.588;2024-02-23T09:22:35;1.65;;;0.90;;
68976;SDS011;56029;52.568;13.588;2024-02-23T09:25:00;1.30;;;0.70;;
68976;SDS011;56029;52.568;13.588;2024-02-23T09:27:26;1.10;;;0.80;;
68976;SDS011;56029;52.568;13.588;2024-02-23T09:29:51;0.93;;;0.63;;
68976;SDS011;56029;52.568;13.588;2024-02-23T09:32:17;1.40;;;0.70;;
68976;SDS011;56029;52.568;13.588;2024-02-23T09:34:42;3.80;;;0.87;;
68976;SDS011;56029;52.568;13.588;2024-02-23T09:37:08;1.00;;;0.67;;
68976;SDS011;56029;52.568;13.588;2024-02-23T09:39:33;2.00;;;0.80;;
68976;SDS011;56029;52.568;13.588;2024-02-23T09:41:59;1.00;;;0.70;;
68976;SDS011;56029;52.568;13.588;2024-02-23T09:44:32;1.70;;;0.80;;
68976;SDS011;56029;52.568;13.588;2024-02-23T09:46:58;2.25;;;0.80;;
68976;SDS011;56029;52.568;13.588;2024-02-23T09:49:24;1.13;;;0.65;;
68976;SDS011;56029;52.568;13.588;2024-02-23T09:51:50;1.77;;;0.70;;
68976;SDS011;56029;52.568;13.588;2024-02-23T09:54:17;1.52;;;0.57;;
68976;SDS011;56029;52.568;13.588;2024-02-23T09:56:43;1.10;;;0.70;;
68976;SDS011;56029;52.568;13.588;2024-02-23T09:59:08;1.15;;;0.70;;
68976;SDS011;56029;52.568;13.588;2024-02-23T10:01:34;1.42;;;0.70;;
68976;SDS011;56029;52.568;13.588;2024-02-23T10:04:00;2.20;;;0.70;;
68976;SDS011;56029;52.568;13.588;2024-02-23T10:06:26;1.52;;;0.63;;
68976;SDS011;56029;52.568;13.588;2024-02-23T10:08:52;1.53;;;0.67;;
68976;SDS011;56029;52.568;13.588;2024-02-23T10:11:18;1.50;;;0.70;;
68976;SDS011;56029;52.568;13.588;2024-02-23T10:13:43;2.60;;;0.70;;
68976;SDS011;56029;52.568;13.588;2024-02-23T10:16:09;1.38;;;0.70;;
68976;SDS011;56029;52.568;13.588;2024-02-23T10:18:37;1.93;;;0.70;;
68976;SDS011;56029;52.568;13.588;2024-02-23T10:21:04;2.60;;;0.70;;
68976;SDS011;56029;52.568;13.588;2024-02-23T10:23:30;5.10;;;0.70;;
68976;SDS011;56029;52.568;13.588;2024-02-23T10:25:55;1.93;;;0.70;;
68976;SDS011;56029;52.568;13.588;2024-02-23T10:28:21;0.93;;;0.70;;
68976;SDS011;56029;52.568;13.588;2024-02-23T10:30:47;1.23;;;0.60;;
68976;SDS011;56029;52.568;13.588;2024-02-23T10:33:13;1.02;;;0.60;;
68976;SDS011;56029;52.568;13.588;2024-02-23T10:35:39;1.38;;;0.73;;
68976;SDS011;56029;52.568;13.588;2024-02-23T10:38:08;1.43;;;0.70;;
68976;SDS011;56029;52.568;13.588;2024-02-23T10:40:33;1.63;;;0.70;;
68976;SDS011;56029;52.568;13.588;2024-02-23T10:42:59;1.95;;;0.70;;
68976;SDS011;56029;52.568;13.588;2024-02-23T10:45:28;0.90;;;0.57;;
68976;SDS011;56029;52.568;13.588;2024-02-23T10:47:54;1.23;;;0.60;;
68976;SDS011;56029;52.568;13.588;2024-02-23T10:50:20;0.80;;;0.60;;
68976;SDS011;56029;52.568;13.588;2024-02-23T10:52:47;1.20;;;0.80;;
68976;SDS011;56029;52.568;13.588;2024-02-23T10:55:14;1.10;;;0.60;;
68976;SDS011;56029;52.568;13.588;2024-02-23T10:57:39;1.60;;;0.70;;
68976;SDS011;56029;52.568;13.588;2024-02-23T11:00:06;0.60;;;0.60;;
68976;SDS011;56029;52.568;13.588;2024-02-23T11:02:33;0.50;;;0.45;;
68976;SDS011;56029;52.568;13.588;2024-02-23T11:05:04;1.42;;;0.80;;
68976;SDS011;56029;52.568;13.588;2024-02-23T11:07:29;1.10;;;0.60;;
68976;SDS011;56029;52.568;13.588;2024-02-23T11:09:58;1.10;;;0.73;;
68976;SDS011;56029;52.568;13.588;2024-02-23T11:12:24;1.67;;;0.70;;
68976;SDS011;56029;52.568;13.588;2024-02-23T11:14:51;1.25;;;0.60;;
68976;SDS011;56029;52.568;13.588;2024-02-23T11:17:20;2.80;;;0.80;;
68976;SDS011;56029;52.568;13.588;2024-02-23T11:19:46;1.95;;;0.50;;
68976;SDS011;56029;52.568;13.588;2024-02-23T11:22:14;1.65;;;0.68;;
68976;SDS011;56029;52.568;13.588;2024-02-23T11:24:43;1.47;;;0.70;;
68976;SDS011;56029;52.568;13.588;2024-02-23T11:27:13;1.35;;;0.75;;
68976;SDS011;56029;52.568;13.588;2024-02-23T11:29:39;2.42;;;0.60;;
68976;SDS011;56029;52.568;13.588;2024-02-23T11:32:11;1.90;;;1.27;;
68976;SDS011;56029;52.568;13.588;2024-02-23T11:34:38;0.98;;;0.60;;
68976;SDS011;56029;52.568;13.588;2024-02-23T11:37:10;1.23;;;0.60;;
68976;SDS011;56029;52.568;13.588;2024-02-23T11:39:39;1.58;;;0.70;;
68976;SDS011;56029;52.568;13.588;2024-02-23T11:42:05;1.13;;;0.50;;
68976;SDS011;56029;52.568;13.588;2024-02-23T11:44:31;2.20;;;0.70;;
68976;SDS011;56029;52.568;13.588;2024-02-23T11:46:58;2.00;;;0.60;;
68976;SDS011;56029;52.568;13.588;2024-02-23T11:49:27;2.97;;;0.80;;
68976;SDS011;56029;52.568;13.588;2024-02-23T11:51:55;1.83;;;0.70;;
68976;SDS011;56029;52.568;13.588;2024-02-23T11:54:22;1.50;;;0.70;;
68976;SDS011;56029;52.568;13.588;2024-02-23T11:56:48;1.65;;;0.70;;
68976;SDS011;56029;52.568;13.588;2024-02-23T11:59:14;0.80;;;0.60;;
68976;SDS011;56029;52.568;13.588;2024-02-23T12:01:40;2.63;;;0.80;;
68976;SDS011;56029;52.568;13.588;2024-02-23T12:04:05;2.30;;;0.70;;
68976;SDS011;56029;52.568;13.588;2024-02-23T12:06:31;1.02;;;0.60;;
68976;SDS011;56029;52.568;13.588;2024-02-23T12:08:56;2.27;;;0.50;;
68976;SDS011;56029;52.568;13.588;2024-02-23T12:11:22;1.05;;;0.60;;
68976;SDS011;56029;52.568;13.588;2024-02-23T12:13:48;1.63;;;0.60;;
68976;SDS011;56029;52.568;13.588;2024-02-23T12:16:13;2.57;;;0.60;;
68976;SDS011;56029;52.568;13.588;2024-02-23T12:18:39;0.97;;;0.70;;
68976;SDS011;56029;52.568;13.588;2024-02-23T12:21:05;1.10;;;0.60;;
68976;SDS011;56029;52.568;13.588;2024-02-23T12:23:42;1.60;;;0.60;;
68976;SDS011;56029;52.568;13.588;2024-02-23T12:26:08;0.95;;;0.60;;
68976;SDS011;56029;52.568;13.588;2024-02-23T12:28:35;1.15;;;0.70;;
68976;SDS011;56029;52.568;13.588;2024-02-23T12:31:01;1.10;;;0.80;;
68976;SDS011;56029;52.568;13.588;2024-02-23T12:33:29;1.48;;;0.50;;
68976;SDS011;56029;52.568;13.588;2024-02-23T12:35:56;1.42;;;0.60;;
68976;SDS011;56029;52.568;13.588;2024-02-23T12:38:21;1.67;;;0.80;;
68976;SDS011;56029;52.568;13.588;2024-02-23T12:40:47;1.00;;;0.60;;
68976;SDS011;56029;52.568;13.588;2024-02-23T12:43:13;1.52;;;0.90;;
68976;SDS011;56029;52.568;13.588;2024-02-23T12:45:38;0.90;;;0.60;;
68976;SDS011;56029;52.568;13.588;2024-02-23T12:48:04;0.93;;;0.67;;
68976;SDS011;56029;52.568;13.588;2024-02-23T12:50:30;1.60;;;0.60;;
68976;SDS011;56029;52.568;13.588;2024-02-23T12:52:56;1.03;;;0.60;;
68976;SDS011;56029;52.568;13.588;2024-02-23T12:55:21;2.20;;;0.90;;
68976;SDS011;56029;52.568;13.588;2024-02-23T12:57:47;1.27;;;0.60;;
68976;SDS011;56029;52.568;13.588;2024-02-23T13:00:12;3.80;;;1.30;;
68976;SDS011;56029;52.568;13.588;2024-02-23T13:02:39;1.30;;;0.70;;
68976;SDS011;56029;52.568;13.588;2024-02-23T13:05:04;1.43;;;0.73;;
68976;SDS011;56029;52.568;13.588;2024-02-23T13:07:30;2.03;;;0.80;;
68976;SDS011;56029;52.568;13.588;2024-02-23T13:09:55;3.03;;;1.10;;
68976;SDS011;56029;52.568;13.588;2024-02-23T13:12:21;1.33;;;0.70;;
68976;SDS011;56029;52.568;13.588;2024-02-23T13:14:46;2.08;;;0.95;;
68976;SDS011;56029;52.568;13.588;2024-02-23T13:17:12;1.20;;;0.60;;
68976;SDS011;56029;52.568;13.588;2024-02-23T13:19:37;1.60;;;0.70;;
68976;SDS011;56029;52.568;13.588;2024-02-23T13:22:03;1.35;;;0.70;;
68976;SDS011;56029;52.568;13.588;2024-02-23T13:24:28;2.07;;;0.80;;
68976;SDS011;56029;52.568;13.588;2024-02-23T13:26:54;3.37;;;0.77;;
68976;SDS011;56029;52.568;13.588;2024-02-23T13:29:19;3.20;;;0.60;;
68976;SDS011;56029;52.568;13.588;2024-02-23T13:31:45;1.40;;;0.77;;
68976;SDS011;56029;52.568;13.588;2024-02-23T13:34:10;3.00;;;0.80;;
68976;SDS011;56029;52.568;13.588;2024-02-23T13:36:36;2.25;;;0.70;;
68976;SDS011;56029;52.568;13.588;2024-02-23T13:39:01;2.50;;;0.90;;
68976;SDS011;56029;52.568;13.588;2024-02-23T13:41:27;1.83;;;1.00;;
68976;SDS011;56029;52.568;13.588;2024-02-23T13:43:53;1.52;;;0.70;;
68976;SDS011;56029;52.568;13.588;2024-02-23T13:46:18;1.00;;;0.67;;
68976;SDS011;56029;52.568;13.588;2024-02-23T13:48:47;0.77;;;0.60;;
68976;SDS011;56029;52.568;13.588;2024-02-23T13:51:26;2.63;;;0.90;;
68976;SDS011;56029;52.568;13.588;2024-02-23T13:53:52;2.17;;;0.80;;
68976;SDS011;56029;52.568;13.588;2024-02-23T13:56:17;1.00;;;0.70;;
68976;SDS011;56029;52.568;13.588;2024-02-23T13:58:43;2.47;;;0.90;;
68976;SDS011;56029;52.568;13.588;2024-02-23T14:01:08;2.03;;;0.80;;
68976;SDS011;56029;52.568;13.588;2024-02-23T14:03:34;2.57;;;0.70;;
68976;SDS011;56029;52.568;13.588;2024-02-23T14:05:59;1.83;;;0.70;;
68976;SDS011;56029;52.568;13.588;2024-02-23T14:08:25;2.13;;;0.80;;
68976;SDS011;56029;52.568;13.588;2024-02-23T14:10:50;3.70;;;0.90;;
68976;SDS011;56029;52.568;13.588;2024-02-23T14:13:16;1.43;;;0.80;;
68976;SDS011;56029;52.568;13.588;2024-02-23T14:15:42;0.80;;;0.70;;
68976;SDS011;56029;52.568;13.588;2024-02-23T14:18:07;2.87;;;0.73;;
68976;SDS011;56029;52.568;13.588;2024-02-23T14:20:33;0.75;;;0.70;;
68976;SDS011;56029;52.568;13.588;2024-02-23T14:22:58;2.20;;;0.80;;
68976;SDS011;56029;52.568;13.588;2024-02-23T14:25:24;2.17;;;0.80;;